Time;durP1;ratioP1;P1;durP2;ratioP2;P2;SDS_P1;SDS_P2;PMS_P1;PMS_P2;Temp;Humidity;BMP_temperature;BMP_pressure;BME280_temperature;BME280_humidity;BME280_pressure;Samples;Min_cycle;Max_cycle;Signal;HPM_P1;HPM_P2
2021/08/08 00:00:21;;;;;;;0.93;0.57;;;;;;;13.71;100.00;98028.19;5047984;28;20063;-77
2021/08/08 00:03:25;;;;;;;2.45;0.70;;;;;;;13.69;100.00;98025.19;5048933;28;20072;-79
2021/08/08 00:06:28;;;;;;;0.20;0.10;;;;;;;13.67;100.00;98028.53;5049429;28;20060;-78
2021/08/08 00:09:31;;;;;;;2.50;0.73;;;;;;;13.78;100.00;98027.53;5047120;28;20143;-79
2021/08/08 00:12:35;;;;;;;0.75;0.68;;;;;;;13.67;100.00;98024.97;5046557;28;20518;-79
2021/08/08 00:15:38;;;;;;;5.10;1.20;;;;;;;13.72;100.00;98026.16;5043546;28;20191;-79
2021/08/08 00:18:42;;;;;;;7.07;0.47;;;;;;;13.74;100.00;98021.53;5012331;28;20106;-78
2021/08/08 00:21:45;;;;;;;1.77;0.77;;;;;;;13.75;100.00;98027.88;5014770;28;20111;-78
2021/08/08 00:24:48;;;;;;;3.80;0.70;;;;;;;13.74;100.00;98017.97;5010924;28;20075;-77
2021/08/08 00:27:52;;;;;;;2.30;0.55;;;;;;;13.77;100.00;98036.47;5003291;28;20052;-77
2021/08/08 00:30:55;;;;;;;3.50;0.63;;;;;;;13.73;100.00;98031.19;5001725;28;20098;-77
2021/08/08 00:33:58;;;;;;;2.72;0.93;;;;;;;13.73;100.00;98024.88;5003954;28;20179;-77
2021/08/08 00:37:02;;;;;;;6.55;0.60;;;;;;;13.73;100.00;98030.47;5007904;28;20184;-77
2021/08/08 00:40:05;;;;;;;3.08;0.47;;;;;;;13.71;100.00;98025.41;5011761;28;20103;-78
2021/08/08 00:43:10;;;;;;;2.42;0.68;;;;;;;13.64;100.00;98024.00;5009725;28;20056;-78
2021/08/08 00:46:13;;;;;;;4.15;1.05;;;;;;;13.64;100.00;98015.63;5008426;28;20111;-79
2021/08/08 00:49:16;;;;;;;2.15;0.35;;;;;;;13.76;100.00;98007.00;5010436;28;20070;-80
2021/08/08 00:52:20;;;;;;;1.02;0.40;;;;;;;13.79;100.00;98022.69;5014148;28;20820;-79
2021/08/08 00:55:23;;;;;;;2.00;0.73;;;;;;;13.77;100.00;98023.25;5014988;28;20118;-78
2021/08/08 00:58:28;;;;;;;1.80;0.60;;;;;;;13.75;100.00;98022.28;5017012;28;20269;-79
2021/08/08 01:01:39;;;;;;;5.85;0.40;;;;;;;13.75;100.00;98023.03;5013215;28;20079;-79
2021/08/08 01:04:50;;;;;;;6.55;0.50;;;;;;;13.67;100.00;98017.34;5015084;28;20060;-80
2021/08/08 01:07:56;;;;;;;1.15;1.00;;;;;;;13.65;100.00;98019.94;5007159;28;21124;-79
2021/08/08 01:11:00;;;;;;;2.47;0.70;;;;;;;13.62;100.00;98014.69;5014164;28;20102;-79
2021/08/08 01:14:06;;;;;;;1.40;0.57;;;;;;;13.66;100.00;98024.22;5014966;28;20056;-78
2021/08/08 01:17:10;;;;;;;2.78;0.77;;;;;;;13.72;100.00;98028.94;5015621;28;20060;-79
2021/08/08 01:20:14;;;;;;;0.98;0.50;;;;;;;13.71;100.00;98024.66;5014676;28;20162;-79
2021/08/08 01:23:18;;;;;;;1.65;0.60;;;;;;;13.68;100.00;98018.88;5011387;28;20250;-79
2021/08/08 01:26:22;;;;;;;2.47;0.95;;;;;;;13.68;100.00;98015.31;5020016;28;20739;-79
2021/08/08 01:29:25;;;;;;;2.05;0.35;;;;;;;13.67;100.00;98013.78;5025168;28;20063;-79
2021/08/08 01:32:33;;;;;;;0.30;0.30;;;;;;;13.64;100.00;98010.03;5024548;28;21061;-79
2021/08/08 01:35:37;;;;;;;1.38;0.68;;;;;;;13.63;100.00;98010.56;5024071;28;20110;-79
2021/08/08 01:38:45;;;;;;;2.65;0.28;;;;;;;13.60;100.00;98006.81;5034926;28;20124;-80
2021/08/08 01:41:56;;;;;;;0.57;0.13;;;;;;;13.59;100.00;97998.97;5054013;28;20080;-80
2021/08/08 01:45:02;;;;;;;4.85;0.60;;;;;;;13.59;100.00;97994.13;5050725;28;20051;-78
2021/08/08 01:48:09;;;;;;;1.65;0.50;;;;;;;13.56;100.00;98005.63;5050582;28;20075;-79
2021/08/08 01:51:12;;;;;;;1.42;0.40;;;;;;;13.55;100.00;97992.97;5053133;28;20060;-79
2021/08/08 01:54:17;;;;;;;1.70;0.52;;;;;;;13.55;100.00;98004.91;5049794;28;20064;-79
2021/08/08 01:57:19;;;;;;;1.05;0.55;;;;;;;13.48;100.00;97999.97;5048638;28;20136;-78
2021/08/08 02:00:25;;;;;;;0.25;0.25;;;;;;;13.40;100.00;98001.91;5045300;28;20052;-79
2021/08/08 02:03:38;;;;;;;0.47;0.32;;;;;;;13.41;100.00;98005.44;5038599;28;20063;-79
2021/08/08 02:06:41;;;;;;;0.90;0.43;;;;;;;13.39;100.00;98003.19;5040722;28;20056;-79
2021/08/08 02:09:45;;;;;;;1.13;0.50;;;;;;;13.45;100.00;98005.84;5038534;28;20149;-79
2021/08/08 02:12:48;;;;;;;1.20;0.40;;;;;;;13.47;100.00;98004.03;5045347;28;20099;-78
2021/08/08 02:15:52;;;;;;;0.70;0.45;;;;;;;13.48;100.00;98007.59;5042617;28;20052;-78
2021/08/08 02:18:55;;;;;;;0.47;0.30;;;;;;;13.49;100.00;98007.03;5039826;28;20485;-79
2021/08/08 02:21:59;;;;;;;1.08;0.45;;;;;;;13.45;100.00;98000.28;5043667;28;20478;-78
2021/08/08 02:25:03;;;;;;;3.05;0.40;;;;;;;13.49;100.00;98003.50;5026666;28;20061;-77
2021/08/08 02:28:07;;;;;;;0.20;0.20;;;;;;;13.56;100.00;98006.38;5004580;28;20060;-77
2021/08/08 02:31:13;;;;;;;0.93;0.20;;;;;;;13.60;100.00;98001.22;5004969;28;20064;-77
2021/08/08 02:34:16;;;;;;;0.40;0.30;;;;;;;13.46;100.00;98008.13;5013359;28;20060;-77
2021/08/08 02:37:19;;;;;;;0.35;0.10;;;;;;;13.46;100.00;98001.78;5004099;28;20080;-77
2021/08/08 02:40:22;;;;;;;0.55;0.32;;;;;;;13.50;100.00;98002.19;5016661;28;20092;-77
2021/08/08 02:43:25;;;;;;;1.58;0.60;;;;;;;13.54;100.00;98008.97;5037078;28;20147;-77
2021/08/08 02:46:29;;;;;;;1.17;0.20;;;;;;;13.51;100.00;98007.25;5037698;28;20087;-78
2021/08/08 02:49:32;;;;;;;0.32;0.25;;;;;;;13.63;100.00;98013.38;5021370;28;20883;-77
2021/08/08 02:52:38;;;;;;;1.50;0.73;;;;;;;13.66;100.00;98015.81;5009227;28;20107;-76
2021/08/08 02:55:40;;;;;;;3.13;0.70;;;;;;;13.62;100.00;98004.22;5006249;28;20061;-77
2021/08/08 02:58:44;;;;;;;0.45;0.10;;;;;;;13.56;100.00;98011.97;5004360;28;20561;-77
2021/08/08 03:01:47;;;;;;;0.57;0.10;;;;;;;13.57;100.00;98010.69;5005699;28;20546;-76
2021/08/08 03:04:50;;;;;;;2.58;0.40;;;;;;;13.55;100.00;98016.09;5007232;28;20341;-77
2021/08/08 03:07:53;;;;;;;0.10;0.10;;;;;;;13.54;100.00;98014.56;5006780;28;20133;-77
2021/08/08 03:10:57;;;;;;;0.10;0.10;;;;;;;13.52;100.00;98017.16;5011551;28;20549;-76
2021/08/08 03:14:00;;;;;;;0.90;0.20;;;;;;;13.48;100.00;98011.13;5038949;28;20159;-77
2021/08/08 03:17:03;;;;;;;0.55;0.10;;;;;;;13.49;100.00;98017.50;5036648;28;20099;-76
2021/08/08 03:20:07;;;;;;;0.40;0.30;;;;;;;13.48;100.00;98011.13;5036867;28;20076;-76
2021/08/08 03:23:10;;;;;;;0.20;0.10;;;;;;;13.45;100.00;98015.00;5033687;28;20748;-77
2021/08/08 03:26:15;;;;;;;0.10;0.10;;;;;;;13.46;100.00;98024.91;5033846;28;20560;-77
2021/08/08 03:29:18;;;;;;;0.10;0.10;;;;;;;13.47;100.00;98018.00;5032710;28;20052;-77
2021/08/08 03:32:20;;;;;;;0.20;0.20;;;;;;;13.54;100.00;98017.38;5033454;28;20073;-77
2021/08/08 03:35:23;;;;;;;1.10;0.45;;;;;;;13.47;100.00;98015.22;5038748;28;20553;-77
2021/08/08 03:38:27;;;;;;;1.55;0.50;;;;;;;13.46;100.00;98024.16;5031766;28;20064;-77
2021/08/08 03:41:30;;;;;;;3.30;0.55;;;;;;;13.48;100.00;98022.31;5038046;28;20083;-77
2021/08/08 03:44:33;;;;;;;1.45;0.47;;;;;;;13.48;100.00;98025.13;5036845;28;20454;-77
2021/08/08 03:47:36;;;;;;;0.65;0.10;;;;;;;13.47;100.00;98026.41;5010136;28;20123;-77
2021/08/08 03:50:39;;;;;;;1.73;0.30;;;;;;;13.46;100.00;98019.31;5006821;28;20064;-79
2021/08/08 03:53:42;;;;;;;0.25;0.22;;;;;;;13.48;100.00;98022.31;5008724;28;20084;-79
2021/08/08 03:56:46;;;;;;;0.45;0.32;;;;;;;13.50;100.00;98016.94;5003407;28;20351;-77
2021/08/08 03:59:49;;;;;;;0.40;0.28;;;;;;;13.50;100.00;98025.34;5024080;28;20053;-81
2021/08/08 04:02:52;;;;;;;1.75;0.40;;;;;;;13.50;100.00;98025.34;5036336;28;20107;-80
2021/08/08 04:05:55;;;;;;;0.10;0.00;;;;;;;13.50;100.00;98025.34;5037581;28;20060;-81
2021/08/08 04:08:58;;;;;;;0.30;0.30;;;;;;;13.49;100.00;98023.81;5041167;28;20064;-81
2021/08/08 04:12:05;;;;;;;3.90;0.30;;;;;;;13.52;100.00;98025.53;5038311;28;20097;-81
2021/08/08 04:15:09;;;;;;;0.10;0.10;;;;;;;13.54;100.00;98025.75;5036171;28;20080;-81
2021/08/08 04:18:12;;;;;;;4.47;0.65;;;;;;;13.55;100.00;98026.50;5036808;28;20569;-81
2021/08/08 04:21:15;;;;;;;3.72;0.38;;;;;;;13.54;100.00;98034.16;5036605;28;20055;-80
2021/08/08 04:24:19;;;;;;;2.55;0.25;;;;;;;13.55;100.00;98021.69;5034976;28;20077;-80
2021/08/08 04:27:21;;;;;;;1.00;0.20;;;;;;;13.55;100.00;98038.47;5037322;28;20119;-81
2021/08/08 04:30:25;;;;;;;0.10;0.00;;;;;;;13.57;100.00;98030.28;5042575;28;20056;-81
2021/08/08 04:33:28;;;;;;;4.55;0.47;;;;;;;13.61;100.00;98035.53;5041175;28;20140;-80
2021/08/08 04:36:31;;;;;;;1.00;0.32;;;;;;;13.59;100.00;98038.88;5040260;28;20060;-82
2021/08/08 04:39:34;;;;;;;0.20;0.10;;;;;;;13.59;100.00;98033.28;5040521;28;20410;-81
2021/08/08 04:42:38;;;;;;;0.10;0.10;;;;;;;13.60;100.00;98040.38;5041295;28;20072;-81
2021/08/08 04:45:41;;;;;;;0.20;0.20;;;;;;;13.59;100.00;98038.88;5040515;28;20506;-81
2021/08/08 04:48:45;;;;;;;0.20;0.15;;;;;;;13.61;100.00;98046.72;5039340;28;20114;-81
2021/08/08 04:51:48;;;;;;;0.20;0.13;;;;;;;13.60;100.00;98045.97;5039799;28;20087;-81
2021/08/08 04:54:51;;;;;;;0.85;0.20;;;;;;;13.64;100.00;98048.44;5043947;28;20422;-81
2021/08/08 04:57:54;;;;;;;0.32;0.20;;;;;;;13.66;100.00;98055.00;5043698;28;20095;-81
2021/08/08 05:00:57;;;;;;;0.30;0.20;;;;;;;13.71;100.00;98058.22;5040768;28;20145;-81
2021/08/08 05:04:00;;;;;;;9.20;0.43;;;;;;;13.73;100.00;98061.97;5041704;28;20065;-80
2021/08/08 05:07:03;;;;;;;0.63;0.10;;;;;;;13.77;100.00;98047.66;5046411;28;20140;-81
2021/08/08 05:10:08;;;;;;;0.65;0.47;;;;;;;13.80;100.00;98052.94;5034961;28;20063;-81
2021/08/08 05:13:11;;;;;;;0.28;0.10;;;;;;;13.81;100.00;98046.06;5035774;28;20107;-81
2021/08/08 05:16:14;;;;;;;0.15;0.10;;;;;;;13.83;100.00;98054.66;5051322;28;20083;-81
2021/08/08 05:19:17;;;;;;;2.95;0.25;;;;;;;13.86;100.00;98050.75;5035348;28;20053;-79
2021/08/08 05:22:20;;;;;;;1.30;0.15;;;;;;;13.85;100.00;98046.47;5036165;28;20064;-79
2021/08/08 05:25:23;;;;;;;1.20;0.45;;;;;;;13.91;100.00;98052.69;5036380;28;20129;-79
2021/08/08 05:28:26;;;;;;;3.50;0.50;;;;;;;13.97;100.00;98060.97;5040976;28;20513;-79
2021/08/08 05:31:29;;;;;;;0.70;0.20;;;;;;;13.98;100.00;98051.28;5030217;28;20513;-77
2021/08/08 05:34:32;;;;;;;0.13;0.13;;;;;;;14.02;100.00;98052.44;5031653;28;20107;-78
2021/08/08 05:37:35;;;;;;;0.22;0.20;;;;;;;14.04;100.00;98049.84;5032307;28;20076;-78
2021/08/08 05:40:39;;;;;;;1.88;0.30;;;;;;;14.08;100.00;98055.09;5035408;28;20079;-78
2021/08/08 05:43:41;;;;;;;0.88;0.88;;;;;;;14.11;100.00;98060.41;5040356;28;20056;-76
2021/08/08 05:46:44;;;;;;;0.65;0.20;;;;;;;14.14;100.00;98053.69;5037375;28;20564;-80
2021/08/08 05:49:48;;;;;;;0.60;0.60;;;;;;;14.22;100.00;98060.16;5028640;28;20521;-79
2021/08/08 05:52:51;;;;;;;4.40;0.47;;;;;;;14.34;100.00;98063.44;5042986;28;20194;-78
2021/08/08 05:55:54;;;;;;;0.82;0.40;;;;;;;14.41;100.00;98065.59;5039847;28;21775;-79
2021/08/08 05:58:57;;;;;;;3.85;0.40;;;;;;;14.47;100.00;98062.66;5043104;28;20056;-79
2021/08/08 06:02:00;;;;;;;1.13;0.47;;;;;;;14.46;100.00;98064.72;5039368;28;20052;-79
2021/08/08 06:05:04;;;;;;;0.63;0.20;;;;;;;14.50;100.00;98062.31;5037731;28;20080;-79
2021/08/08 06:08:07;;;;;;;2.60;0.38;;;;;;;14.60;100.00;98077.34;5032630;28;20137;-79
2021/08/08 06:11:10;;;;;;;1.80;0.40;;;;;;;14.70;100.00;98074.81;5036597;28;20059;-81
2021/08/08 06:14:13;;;;;;;6.45;0.93;;;;;;;14.75;100.00;98080.28;5032395;28;20063;-79
2021/08/08 06:17:16;;;;;;;2.63;0.52;;;;;;;14.77;100.00;98086.09;5037343;28;20526;-79
2021/08/08 06:20:20;;;;;;;0.70;0.60;;;;;;;14.80;100.00;98090.59;5037675;28;20589;-79
2021/08/08 06:23:23;;;;;;;0.22;0.22;;;;;;;14.84;100.00;98091.00;5034026;28;20056;-79
2021/08/08 06:26:26;;;;;;;0.38;0.25;;;;;;;14.80;100.00;98101.81;5029768;28;20048;-79
2021/08/08 06:29:29;;;;;;;1.35;0.30;;;;;;;14.76;100.00;98095.81;5032835;28;20048;-79
2021/08/08 06:32:32;;;;;;;1.70;0.20;;;;;;;14.77;100.00;98105.69;5041622;28;20056;-79
2021/08/08 06:35:36;;;;;;;4.47;0.57;;;;;;;14.73;100.00;98102.50;5039802;28;20149;-79
2021/08/08 06:38:40;;;;;;;0.50;0.32;;;;;;;14.73;100.00;98110.91;5044377;28;20076;-79
2021/08/08 06:41:43;;;;;;;1.90;0.32;;;;;;;14.81;100.00;98110.97;5045136;28;20053;-79
2021/08/08 06:44:46;;;;;;;1.35;0.50;;;;;;;14.94;100.00;98108.84;5043448;28;20080;-81
2021/08/08 06:47:49;;;;;;;1.10;0.77;;;;;;;14.96;100.00;98114.69;5045382;28;20055;-79
2021/08/08 06:50:55;;;;;;;1.17;0.32;;;;;;;14.91;100.00;98114.81;5043818;28;20056;-80
2021/08/08 06:53:57;;;;;;;0.15;0.10;;;;;;;14.87;100.00;98112.34;5038566;28;20056;-79
2021/08/08 06:57:00;;;;;;;0.40;0.15;;;;;;;14.89;100.00;98115.34;5045632;28;20060;-80
2021/08/08 07:00:05;;;;;;;0.17;0.13;;;;;;;14.88;100.00;98119.44;5036349;28;20118;-79
2021/08/08 07:03:08;;;;;;;0.45;0.17;;;;;;;14.99;100.00;98130.38;5037914;28;20057;-79
2021/08/08 07:06:10;;;;;;;0.85;0.40;;;;;;;15.13;100.00;98134.63;5040194;28;20056;-79
2021/08/08 07:09:14;;;;;;;0.93;0.35;;;;;;;15.30;100.00;98133.44;5040093;28;20123;-79
2021/08/08 07:12:17;;;;;;;1.55;0.40;;;;;;;15.45;100.00;98131.53;5035316;28;20104;-78
2021/08/08 07:15:19;;;;;;;0.22;0.20;;;;;;;15.75;100.00;98128.91;5039246;28;20064;-79
2021/08/08 07:18:23;;;;;;;0.10;0.00;;;;;;;15.82;100.00;98130.25;5039482;28;20061;-78
2021/08/08 07:21:26;;;;;;;1.15;0.22;;;;;;;15.75;100.00;98137.34;5039301;28;20060;-79
2021/08/08 07:24:29;;;;;;;0.20;0.10;;;;;;;15.57;100.00;98148.81;5039719;28;20450;-80
2021/08/08 07:27:32;;;;;;;0.20;0.10;;;;;;;15.35;100.00;98149.38;5031532;28;20107;-80
2021/08/08 07:30:36;;;;;;;0.20;0.10;;;;;;;15.13;100.00;98157.06;5039381;28;20060;-80
2021/08/08 07:33:39;;;;;;;0.10;0.00;;;;;;;14.98;100.00;98161.78;5039957;28;20076;-79
2021/08/08 07:36:42;;;;;;;1.90;0.40;;;;;;;14.81;100.00;98169.84;5039701;28;20107;-79
2021/08/08 07:39:45;;;;;;;0.30;0.10;;;;;;;14.76;100.00;98176.31;5039876;28;20084;-79
2021/08/08 07:42:50;;;;;;;0.10;0.10;;;;;;;14.76;100.00;98179.13;5038817;28;20068;-80
2021/08/08 07:45:53;;;;;;;0.45;0.20;;;;;;;14.72;100.00;98185.06;5039480;28;20063;-82
2021/08/08 07:48:56;;;;;;;1.75;0.30;;;;;;;14.72;100.00;98187.88;5039404;28;20060;-82
2021/08/08 07:51:59;;;;;;;0.20;0.10;;;;;;;14.70;100.00;98193.28;5039276;28;20200;-78
2021/08/08 07:55:07;;;;;;;0.50;0.10;;;;;;;14.66;100.00;98192.81;5041048;28;20060;-78
2021/08/08 07:58:10;;;;;;;0.10;0.00;;;;;;;14.65;100.00;98196.94;5035641;28;20100;-79
2021/08/08 08:01:13;;;;;;;0.10;0.10;;;;;;;14.71;100.00;98194.00;5027411;28;20534;-78
2021/08/08 08:04:19;;;;;;;0.10;0.10;;;;;;;14.76;100.00;98196.69;5031556;28;20107;-78
2021/08/08 08:23:10;;;;;;;2.85;0.90;;;;;;;15.04;100.00;98216.41;5076965;27;20856;-78
2021/08/08 08:26:13;;;;;;;0.32;0.32;;;;;;;15.07;100.00;98226.53;5068087;28;20071;-78
2021/08/08 08:29:16;;;;;;;0.75;0.40;;;;;;;15.38;100.00;98218.38;5068134;28;20110;-75
2021/08/08 08:32:22;;;;;;;0.65;0.20;;;;;;;15.53;100.00;98221.34;5047243;28;20137;-75
2021/08/08 08:35:26;;;;;;;0.38;0.20;;;;;;;15.44;100.00;98231.00;5053318;28;20059;-75
2021/08/08 08:38:28;;;;;;;1.33;0.30;;;;;;;15.38;100.00;98232.41;5047536;28;20185;-75
2021/08/08 08:41:32;;;;;;;0.30;0.30;;;;;;;15.42;100.00;98232.84;5048337;28;20107;-75
2021/08/08 08:44:38;;;;;;;1.80;0.28;;;;;;;15.50;100.00;98239.31;5047485;28;20060;-75
2021/08/08 08:47:43;;;;;;;0.28;0.17;;;;;;;15.44;100.00;98241.50;5053508;28;20087;-75
2021/08/08 08:50:53;;;;;;;2.50;0.80;;;;;;;15.24;100.00;98250.63;5047794;28;20064;-77
2021/08/08 08:54:00;;;;;;;1.08;0.10;;;;;;;15.14;100.00;98251.09;5047761;28;20051;-76
2021/08/08 08:57:04;;;;;;;0.20;0.10;;;;;;;15.04;100.00;98261.28;5047415;28;20061;-76
2021/08/08 09:00:09;;;;;;;3.97;0.30;;;;;;;14.95;100.00;98258.94;5061092;28;20508;-76
2021/08/08 09:03:12;;;;;;;0.52;0.10;;;;;;;15.01;100.00;98265.16;5064608;28;20075;-78
2021/08/08 09:06:15;;;;;;;0.55;0.28;;;;;;;15.06;100.00;98272.69;5064148;28;20102;-77
2021/08/08 09:09:18;;;;;;;0.10;0.10;;;;;;;15.09;100.00;98280.00;5072620;27;20190;-77
2021/08/08 09:12:26;;;;;;;1.02;0.25;;;;;;;15.01;100.00;98284.03;5065254;28;20079;-77
2021/08/08 09:15:39;;;;;;;0.40;0.17;;;;;;;14.95;100.00;98284.16;5065575;28;20048;-77
2021/08/08 09:18:52;;;;;;;0.45;0.10;;;;;;;14.97;100.00;98289.97;5065270;28;20083;-77
2021/08/08 09:21:55;;;;;;;0.73;0.20;;;;;;;15.08;100.00;98295.34;5063364;28;20417;-77
2021/08/08 09:24:58;;;;;;;0.82;0.20;;;;;;;15.33;100.00;98290.19;5051507;28;20055;-77
2021/08/08 09:28:06;;;;;;;0.20;0.10;;;;;;;15.52;100.00;98306.84;5052163;28;20107;-77
2021/08/08 09:31:20;;;;;;;5.60;0.90;;;;;;;15.65;100.00;98301.16;5052794;28;20080;-77
2021/08/08 09:34:32;;;;;;;0.82;0.10;;;;;;;15.99;100.00;98290.59;5051485;28;20056;-77
2021/08/08 09:37:36;;;;;;;1.67;0.47;;;;;;;16.48;100.00;98302.50;5050969;28;20060;-77
2021/08/08 09:40:41;;;;;;;1.42;0.20;;;;;;;16.64;100.00;98309.00;5051939;28;20587;-77
2021/08/08 09:43:44;;;;;;;1.92;0.38;;;;;;;16.31;100.00;98298.66;5052385;28;20059;-78
2021/08/08 09:46:56;;;;;;;1.48;0.30;;;;;;;16.09;100.00;98311.25;5032820;28;20119;-79
2021/08/08 09:50:00;;;;;;;2.30;0.57;;;;;;;15.85;100.00;98300.41;5033169;28;20059;-78
2021/08/08 09:53:05;;;;;;;0.30;0.10;;;;;;;15.81;100.00;98309.16;5041735;28;20092;-78
2021/08/08 09:56:18;;;;;;;0.55;0.50;;;;;;;15.92;100.00;98319.34;5041952;28;20068;-77
2021/08/08 09:59:21;;;;;;;0.60;0.10;;;;;;;16.09;100.00;98318.94;5041273;28;20818;-78
2021/08/08 10:02:24;;;;;;;0.30;0.10;;;;;;;16.46;100.00;98333.22;5032960;28;20458;-78
2021/08/08 10:05:28;;;;;;;1.67;0.45;;;;;;;16.61;100.00;98324.91;5049119;28;20087;-78
2021/08/08 10:08:32;;;;;;;0.70;0.30;;;;;;;16.62;100.00;98332.03;5051326;28;20060;-78
2021/08/08 10:11:36;;;;;;;0.10;0.10;;;;;;;16.60;100.00;98331.09;5050790;28;20091;-78
2021/08/08 10:14:39;;;;;;;1.65;0.15;;;;;;;16.65;100.00;98328.09;5051347;28;20106;-77
2021/08/08 10:17:44;;;;;;;1.85;0.10;;;;;;;16.80;100.00;98332.31;5051665;28;20412;-77
2021/08/08 10:20:48;;;;;;;0.40;0.25;;;;;;;16.95;100.00;98332.38;5041454;28;20414;-77
2021/08/08 10:23:55;;;;;;;0.10;0.10;;;;;;;16.78;100.00;98340.56;5042537;28;20102;-77
2021/08/08 10:26:58;;;;;;;0.10;0.03;;;;;;;16.61;100.00;98338.97;5035714;28;20095;-77
2021/08/08 10:30:04;;;;;;;0.35;0.20;;;;;;;16.42;100.00;98344.06;5033105;28;20080;-77
2021/08/08 10:33:07;;;;;;;0.63;0.40;;;;;;;16.28;100.00;98356.72;5032574;28;20069;-77
2021/08/08 10:36:20;;;;;;;4.03;0.40;;;;;;;16.17;100.00;98368.25;5031946;28;20060;-77
2021/08/08 10:39:41;;;;;;;0.52;0.08;;;;;;;16.07;100.00;98370.00;5032282;28;20060;-77
2021/08/08 10:42:46;;;;;;;0.95;0.40;;;;;;;16.20;100.00;98367.13;5032776;28;20458;-77
2021/08/08 10:45:49;;;;;;;3.38;0.38;;;;;;;16.04;100.00;98376.75;5032333;28;20079;-77
2021/08/08 10:49:02;;;;;;;2.47;0.55;;;;;;;15.99;100.00;98382.47;5032614;28;20084;-76
2021/08/08 10:52:10;;;;;;;1.13;0.47;;;;;;;15.97;100.00;98383.03;5031934;28;20131;-77
2021/08/08 10:55:28;;;;;;;6.05;0.85;;;;;;;15.77;100.00;98386.59;5032628;28;20076;-77
2021/08/08 10:58:35;;;;;;;0.15;0.10;;;;;;;15.62;100.00;98389.25;5031858;28;20076;-77
2021/08/08 11:01:38;;;;;;;3.30;0.60;;;;;;;15.57;100.00;98401.38;5031525;28;20068;-77
2021/08/08 11:04:43;;;;;;;2.53;0.57;;;;;;;15.56;100.00;98408.25;5031794;28;20061;-77
2021/08/08 11:07:47;;;;;;;0.68;0.43;;;;;;;15.51;100.00;98403.53;5054467;28;20067;-76
2021/08/08 11:10:50;;;;;;;0.40;0.20;;;;;;;15.49;100.00;98403.31;5051637;28;20108;-76
2021/08/08 11:13:54;;;;;;;0.80;0.20;;;;;;;15.90;100.00;98406.19;5051377;28;20063;-76
2021/08/08 11:17:04;;;;;;;1.30;0.40;;;;;;;16.73;100.00;98400.50;5039335;28;20542;-76
2021/08/08 11:20:09;;;;;;;1.58;0.20;;;;;;;17.59;100.00;98394.16;5051431;28;20075;-76
2021/08/08 11:23:12;;;;;;;0.70;0.13;;;;;;;17.83;100.00;98388.75;5049268;28;20051;-76
2021/08/08 11:26:17;;;;;;;1.80;0.10;;;;;;;17.99;100.00;98379.03;5045699;28;20056;-76
2021/08/08 11:29:21;;;;;;;0.70;0.05;;;;;;;17.71;100.00;98387.63;5051321;28;20098;-75
2021/08/08 11:32:29;;;;;;;0.15;0.00;;;;;;;17.17;100.00;98393.63;5051698;28;20412;-76
2021/08/08 11:35:32;;;;;;;1.30;0.28;;;;;;;16.84;100.00;98414.25;5051745;28;20079;-75
2021/08/08 11:38:35;;;;;;;0.20;0.10;;;;;;;16.44;100.00;98414.50;5051440;28;20114;-76
2021/08/08 11:41:41;;;;;;;7.32;0.57;;;;;;;16.09;100.00;98412.34;5051753;28;20110;-77
2021/08/08 11:44:43;;;;;;;0.43;0.20;;;;;;;15.93;100.00;98431.13;5051803;28;20182;-76
2021/08/08 11:47:47;;;;;;;0.10;0.00;;;;;;;15.79;100.00;98438.09;5051694;28;20052;-76
2021/08/08 11:51:01;;;;;;;0.10;0.00;;;;;;;15.68;100.00;98440.41;5051855;28;20056;-76
2021/08/08 11:54:07;;;;;;;1.35;0.10;;;;;;;15.63;100.00;98439.22;5051641;28;20064;-77
2021/08/08 11:57:10;;;;;;;0.10;0.10;;;;;;;15.58;100.00;98453.38;5051502;28;20090;-77
2021/08/08 12:00:14;;;;;;;2.47;0.60;;;;;;;15.54;100.00;98450.16;5051647;28;20521;-77
2021/08/08 12:03:17;;;;;;;0.47;0.10;;;;;;;15.52;100.00;98461.16;5034386;28;20068;-76
2021/08/08 12:06:22;;;;;;;0.20;0.10;;;;;;;15.49;100.00;98468.59;5032600;28;20103;-77
2021/08/08 12:09:25;;;;;;;5.05;0.30;;;;;;;15.39;100.00;98466.78;5051632;28;20055;-76
2021/08/08 12:12:36;;;;;;;0.28;0.25;;;;;;;15.33;100.00;98471.75;5057135;28;20090;-76
2021/08/08 12:15:39;;;;;;;0.70;0.10;;;;;;;15.32;100.00;98478.63;5051538;28;20064;-77
2021/08/08 12:18:42;;;;;;;0.15;0.15;;;;;;;15.47;100.00;98476.81;5051062;28;20043;-77
2021/08/08 12:21:46;;;;;;;0.30;0.20;;;;;;;15.72;100.00;98480.13;5049751;28;20529;-78
2021/08/08 12:25:04;;;;;;;1.85;0.10;;;;;;;15.75;100.00;98495.84;5043995;28;20099;-78
2021/08/08 12:28:07;;;;;;;1.38;0.17;;;;;;;15.63;100.00;98484.13;5041474;28;20049;-76
2021/08/08 12:31:11;;;;;;;0.35;0.10;;;;;;;15.65;100.00;98486.38;5052274;28;20056;-76
2021/08/08 12:34:14;;;;;;;0.65;0.25;;;;;;;15.73;100.00;98506.88;5040812;28;20052;-75
2021/08/08 12:37:21;;;;;;;2.63;0.68;;;;;;;15.92;100.00;98504.66;5039214;28;20044;-78
2021/08/08 12:40:24;;;;;;;0.30;0.30;;;;;;;16.01;100.00;98512.63;5039173;28;20056;-76
2021/08/08 12:43:27;;;;;;;1.65;0.20;;;;;;;15.99;100.00;98518.03;5043317;28;20099;-76
2021/08/08 12:46:36;;;;;;;0.63;0.25;;;;;;;16.01;100.00;98526.66;5041482;28;20114;-76
2021/08/08 12:49:40;;;;;;;0.95;0.28;;;;;;;16.13;100.00;98525.13;5042877;28;20634;-76
2021/08/08 12:52:44;;;;;;;0.68;0.10;;;;;;;16.32;100.00;98525.69;5050662;28;20106;-75
2021/08/08 12:55:50;;;;;;;2.72;0.35;;;;;;;16.46;100.00;98510.25;5050528;28;20055;-76
2021/08/08 12:58:55;;;;;;;1.58;0.35;;;;;;;16.72;100.00;98522.69;5042737;28;20060;-76
2021/08/08 13:01:58;;;;;;;4.03;0.22;;;;;;;16.80;100.00;98518.66;5034210;28;20044;-76
2021/08/08 13:05:01;;;;;;;3.80;0.43;;;;;;;16.70;100.00;98519.69;5033612;28;20179;-76
2021/08/08 13:08:04;;;;;;;0.75;0.25;;;;;;;16.47;100.00;98525.84;5053066;28;20052;-75
2021/08/08 13:11:07;;;;;;;0.30;0.10;;;;;;;16.22;100.00;98535.88;5054423;28;20520;-74
2021/08/08 13:14:11;;;;;;;0.32;0.10;;;;;;;16.04;100.00;98556.47;5054023;28;20098;-74
2021/08/08 13:17:14;;;;;;;0.70;0.20;;;;;;;15.85;100.00;98567.84;5054220;28;20075;-74
2021/08/08 13:20:18;;;;;;;0.40;0.30;;;;;;;15.54;100.00;98563.16;5058606;28;20526;-74
2021/08/08 13:23:21;;;;;;;3.00;0.85;;;;;;;15.13;100.00;98572.06;5039790;28;20048;-73
2021/08/08 13:26:24;;;;;;;4.90;0.65;;;;;;;14.82;100.00;98575.69;5041006;28;20141;-72
2021/08/08 13:29:28;;;;;;;0.35;0.35;;;;;;;14.70;100.00;98582.00;5036643;28;20061;-73
2021/08/08 13:32:31;;;;;;;0.30;0.20;;;;;;;14.82;100.00;98591.72;5041559;28;20402;-73
2021/08/08 13:35:34;;;;;;;0.30;0.20;;;;;;;15.15;100.00;98597.53;5034014;28;20446;-75
2021/08/08 13:38:37;;;;;;;0.40;0.10;;;;;;;15.64;100.00;98605.53;5033854;28;20120;-76
2021/08/08 13:41:41;;;;;;;1.58;0.15;;;;;;;15.75;100.00;98602.53;5039351;28;20103;-76
2021/08/08 13:44:45;;;;;;;2.17;0.45;;;;;;;15.66;100.00;98600.91;5062578;28;20110;-77
2021/08/08 13:47:48;;;;;;;0.77;0.32;;;;;;;15.57;100.00;98609.03;5052162;28;20051;-74
2021/08/08 13:50:51;;;;;;;0.20;0.10;;;;;;;15.53;100.00;98622.59;5053577;28;20079;-74
2021/08/08 13:53:54;;;;;;;1.10;0.50;;;;;;;15.55;100.00;98623.56;5053627;28;20051;-76
2021/08/08 13:56:57;;;;;;;0.43;0.17;;;;;;;15.68;100.00;98634.06;5050240;28;20434;-75
2021/08/08 14:00:00;;;;;;;8.80;1.02;;;;;;;16.06;100.00;98640.94;5052312;28;20099;-76
2021/08/08 14:03:03;;;;;;;2.67;0.30;;;;;;;16.92;100.00;98640.03;5053089;28;20725;-75
2021/08/08 14:06:07;;;;;;;2.70;0.40;;;;;;;17.03;100.00;98637.69;5052478;28;20080;-75
2021/08/08 14:09:10;;;;;;;0.63;0.10;;;;;;;16.92;100.00;98632.34;5041513;28;20099;-75
2021/08/08 14:12:13;;;;;;;0.52;0.30;;;;;;;16.63;100.00;98634.31;5054912;28;20055;-73
2021/08/08 14:15:18;;;;;;;0.57;0.30;;;;;;;16.34;100.00;98646.72;5052986;28;20051;-74
2021/08/08 14:18:21;;;;;;;1.27;0.50;;;;;;;16.08;100.00;98651.63;5043909;28;20462;-75
2021/08/08 14:21:24;;;;;;;0.40;0.20;;;;;;;15.88;100.00;98655.84;5052645;28;20048;-74
2021/08/08 14:24:27;;;;;;;1.27;0.55;;;;;;;15.72;100.00;98654.16;5055410;28;20056;-76
2021/08/08 14:27:31;;;;;;;1.85;0.73;;;;;;;15.39;100.00;98649.13;5034917;28;20056;-74
2021/08/08 14:30:34;;;;;;;1.17;0.63;;;;;;;15.13;100.00;98667.41;5033542;28;20060;-73